sensor_id;sensor_type;location;lat;lon;timestamp;temperature;humidity
10419;DHT22;5256;48.728;9.140;2023-03-26T00:00:46;5.40;99.90
10419;DHT22;5256;48.728;9.140;2023-03-26T00:03:14;5.40;99.90
10419;DHT22;5256;48.728;9.140;2023-03-26T00:05:41;5.40;99.90
10419;DHT22;5256;48.728;9.140;2023-03-26T00:08:08;5.40;99.90
10419;DHT22;5256;48.728;9.140;2023-03-26T00:10:35;5.40;99.90
10419;DHT22;5256;48.728;9.140;2023-03-26T00:13:02;5.30;99.90
10419;DHT22;5256;48.728;9.140;2023-03-26T00:15:27;5.30;99.90
10419;DHT22;5256;48.728;9.140;2023-03-26T00:17:53;5.30;99.90
10419;DHT22;5256;48.728;9.140;2023-03-26T00:20:20;5.30;99.90
10419;DHT22;5256;48.728;9.140;2023-03-26T00:22:46;5.30;99.90
10419;DHT22;5256;48.728;9.140;2023-03-26T00:25:12;5.30;99.90
10419;DHT22;5256;48.728;9.140;2023-03-26T00:27:38;5.60;99.90
10419;DHT22;5256;48.728;9.140;2023-03-26T00:30:04;5.70;99.90
10419;DHT22;5256;48.728;9.140;2023-03-26T00:32:30;5.80;99.90
10419;DHT22;5256;48.728;9.140;2023-03-26T00:34:57;5.90;99.90
10419;DHT22;5256;48.728;9.140;2023-03-26T00:37:23;5.90;99.90
10419;DHT22;5256;48.728;9.140;2023-03-26T00:39:52;6.00;99.90
10419;DHT22;5256;48.728;9.140;2023-03-26T00:42:19;6.00;99.90
10419;DHT22;5256;48.728;9.140;2023-03-26T00:44:44;5.90;99.90
10419;DHT22;5256;48.728;9.140;2023-03-26T00:47:10;6.00;99.90
10419;DHT22;5256;48.728;9.140;2023-03-26T00:49:35;5.90;99.90
10419;DHT22;5256;48.728;9.140;2023-03-26T00:52:01;6.00;99.90
10419;DHT22;5256;48.728;9.140;2023-03-26T00:54:28;6.00;99.90
10419;DHT22;5256;48.728;9.140;2023-03-26T00:56:53;5.90;99.90
10419;DHT22;5256;48.728;9.140;2023-03-26T00:59:21;6.00;99.90
10419;DHT22;5256;48.728;9.140;2023-03-26T01:01:47;5.90;99.90
10419;DHT22;5256;48.728;9.140;2023-03-26T01:06:52;5.90;99.90
10419;DHT22;5256;48.728;9.140;2023-03-26T01:09:20;6.00;99.90
10419;DHT22;5256;48.728;9.140;2023-03-26T01:11:50;5.90;99.90
10419;DHT22;5256;48.728;9.140;2023-03-26T01:14:21;5.90;99.90
10419;DHT22;5256;48.728;9.140;2023-03-26T01:16:55;6.00;99.90
10419;DHT22;5256;48.728;9.140;2023-03-26T01:19:34;6.00;99.90
10419;DHT22;5256;48.728;9.140;2023-03-26T01:22:03;6.00;99.90
10419;DHT22;5256;48.728;9.140;2023-03-26T01:24:29;6.00;99.90
10419;DHT22;5256;48.728;9.140;2023-03-26T01:29:51;5.90;99.90
10419;DHT22;5256;48.728;9.140;2023-03-26T01:32:23;5.90;99.90
10419;DHT22;5256;48.728;9.140;2023-03-26T01:35:02;5.90;99.90
10419;DHT22;5256;48.728;9.140;2023-03-26T01:40:32;5.90;99.90
10419;DHT22;5256;48.728;9.140;2023-03-26T01:43:23;5.90;99.90
10419;DHT22;5256;48.728;9.140;2023-03-26T01:45:51;5.90;99.90
10419;DHT22;5256;48.728;9.140;2023-03-26T01:48:17;5.90;99.90
10419;DHT22;5256;48.728;9.140;2023-03-26T01:50:43;5.90;99.90
10419;DHT22;5256;48.728;9.140;2023-03-26T01:53:10;5.90;99.90
10419;DHT22;5256;48.728;9.140;2023-03-26T02:02:01;5.80;99.90
10419;DHT22;5256;48.728;9.140;2023-03-26T02:10:15;5.60;99.90
10419;DHT22;5256;48.728;9.140;2023-03-26T02:12:43;5.50;99.90
10419;DHT22;5256;48.728;9.140;2023-03-26T02:15:10;5.50;99.90
10419;DHT22;5256;48.728;9.140;2023-03-26T02:17:36;5.40;99.90
10419;DHT22;5256;48.728;9.140;2023-03-26T02:20:06;5.40;99.90
10419;DHT22;5256;48.728;9.140;2023-03-26T02:22:33;5.40;99.90
10419;DHT22;5256;48.728;9.140;2023-03-26T02:25:09;5.40;99.90
10419;DHT22;5256;48.728;9.140;2023-03-26T02:27:35;5.40;99.90
10419;DHT22;5256;48.728;9.140;2023-03-26T02:30:02;5.30;99.90
10419;DHT22;5256;48.728;9.140;2023-03-26T02:32:29;5.40;99.90
10419;DHT22;5256;48.728;9.140;2023-03-26T02:34:54;5.30;99.90
10419;DHT22;5256;48.728;9.140;2023-03-26T02:37:20;5.30;99.90
10419;DHT22;5256;48.728;9.140;2023-03-26T02:39:45;5.40;99.90
10419;DHT22;5256;48.728;9.140;2023-03-26T02:42:11;5.30;99.90
10419;DHT22;5256;48.728;9.140;2023-03-26T02:44:36;5.30;99.90
10419;DHT22;5256;48.728;9.140;2023-03-26T02:47:04;5.40;99.90
10419;DHT22;5256;48.728;9.140;2023-03-26T02:49:30;5.40;99.90
10419;DHT22;5256;48.728;9.140;2023-03-26T02:51:56;5.40;99.90
10419;DHT22;5256;48.728;9.140;2023-03-26T02:54:22;5.30;99.90
10419;DHT22;5256;48.728;9.140;2023-03-26T02:56:48;5.40;99.90
10419;DHT22;5256;48.728;9.140;2023-03-26T02:59:13;5.30;99.90
10419;DHT22;5256;48.728;9.140;2023-03-26T03:01:39;5.30;99.90
10419;DHT22;5256;48.728;9.140;2023-03-26T03:04:10;5.20;99.90
10419;DHT22;5256;48.728;9.140;2023-03-26T03:06:37;5.20;99.90
10419;DHT22;5256;48.728;9.140;2023-03-26T03:09:07;5.20;99.90
10419;DHT22;5256;48.728;9.140;2023-03-26T03:11:33;5.20;99.90
10419;DHT22;5256;48.728;9.140;2023-03-26T03:14:00;5.20;99.90
10419;DHT22;5256;48.728;9.140;2023-03-26T03:16:26;5.10;99.90
10419;DHT22;5256;48.728;9.140;2023-03-26T03:18:52;5.10;99.90
10419;DHT22;5256;48.728;9.140;2023-03-26T03:21:26;5.10;99.90
10419;DHT22;5256;48.728;9.140;2023-03-26T03:23:55;5.10;99.90
10419;DHT22;5256;48.728;9.140;2023-03-26T03:26:22;5.10;99.90
10419;DHT22;5256;48.728;9.140;2023-03-26T03:28:55;5.10;99.90
10419;DHT22;5256;48.728;9.140;2023-03-26T03:31:22;5.10;99.90
10419;DHT22;5256;48.728;9.140;2023-03-26T03:33:51;5.00;99.90
10419;DHT22;5256;48.728;9.140;2023-03-26T03:36:19;5.10;99.90
10419;DHT22;5256;48.728;9.140;2023-03-26T03:38:48;5.00;99.90
10419;DHT22;5256;48.728;9.140;2023-03-26T03:41:15;5.10;99.90
10419;DHT22;5256;48.728;9.140;2023-03-26T03:43:43;5.10;99.90
10419;DHT22;5256;48.728;9.140;2023-03-26T03:46:08;5.10;99.90
10419;DHT22;5256;48.728;9.140;2023-03-26T03:48:34;5.10;99.90
10419;DHT22;5256;48.728;9.140;2023-03-26T03:51:02;5.10;99.90
10419;DHT22;5256;48.728;9.140;2023-03-26T03:53:28;5.20;99.90
10419;DHT22;5256;48.728;9.140;2023-03-26T03:55:55;5.30;99.90
10419;DHT22;5256;48.728;9.140;2023-03-26T03:58:22;5.30;99.90
10419;DHT22;5256;48.728;9.140;2023-03-26T04:00:52;5.40;99.90
10419;DHT22;5256;48.728;9.140;2023-03-26T04:03:18;5.30;99.90
10419;DHT22;5256;48.728;9.140;2023-03-26T04:05:45;5.30;99.90
10419;DHT22;5256;48.728;9.140;2023-03-26T04:08:19;5.30;99.90
10419;DHT22;5256;48.728;9.140;2023-03-26T04:10:45;5.30;99.90
10419;DHT22;5256;48.728;9.140;2023-03-26T04:13:12;5.30;99.90
10419;DHT22;5256;48.728;9.140;2023-03-26T04:15:38;5.40;99.90
10419;DHT22;5256;48.728;9.140;2023-03-26T04:18:04;5.50;99.90
10419;DHT22;5256;48.728;9.140;2023-03-26T04:20:38;5.50;99.90
10419;DHT22;5256;48.728;9.140;2023-03-26T04:23:06;5.50;99.90
10419;DHT22;5256;48.728;9.140;2023-03-26T04:25:33;5.50;99.90
10419;DHT22;5256;48.728;9.140;2023-03-26T04:28:02;5.50;99.90
10419;DHT22;5256;48.728;9.140;2023-03-26T04:30:31;5.40;99.90
10419;DHT22;5256;48.728;9.140;2023-03-26T04:32:59;5.40;99.90
10419;DHT22;5256;48.728;9.140;2023-03-26T04:35:30;5.40;99.90
10419;DHT22;5256;48.728;9.140;2023-03-26T04:37:59;5.30;99.90
10419;DHT22;5256;48.728;9.140;2023-03-26T04:40:25;5.40;99.90
10419;DHT22;5256;48.728;9.140;2023-03-26T04:42:51;5.40;99.90
10419;DHT22;5256;48.728;9.140;2023-03-26T04:45:22;5.30;99.90
10419;DHT22;5256;48.728;9.140;2023-03-26T04:47:49;5.40;99.90
10419;DHT22;5256;48.728;9.140;2023-03-26T04:50:15;5.40;99.90
10419;DHT22;5256;48.728;9.140;2023-03-26T04:52:41;5.40;99.90
10419;DHT22;5256;48.728;9.140;2023-03-26T04:55:15;5.40;99.90
10419;DHT22;5256;48.728;9.140;2023-03-26T04:57:45;5.50;99.90
10419;DHT22;5256;48.728;9.140;2023-03-26T05:00:14;5.50;99.90
10419;DHT22;5256;48.728;9.140;2023-03-26T05:02:42;5.50;99.90
10419;DHT22;5256;48.728;9.140;2023-03-26T05:05:08;5.60;99.90
10419;DHT22;5256;48.728;9.140;2023-03-26T05:07:34;5.60;99.90
10419;DHT22;5256;48.728;9.140;2023-03-26T05:10:00;5.60;99.90
10419;DHT22;5256;48.728;9.140;2023-03-26T05:12:29;5.60;99.90
10419;DHT22;5256;48.728;9.140;2023-03-26T05:14:55;5.60;99.90
10419;DHT22;5256;48.728;9.140;2023-03-26T05:17:22;5.60;99.90
10419;DHT22;5256;48.728;9.140;2023-03-26T05:19:49;5.50;99.90
10419;DHT22;5256;48.728;9.140;2023-03-26T05:22:16;5.50;99.90
10419;DHT22;5256;48.728;9.140;2023-03-26T05:24:42;5.60;99.90
10419;DHT22;5256;48.728;9.140;2023-03-26T05:27:15;5.60;99.90
10419;DHT22;5256;48.728;9.140;2023-03-26T05:29:46;5.60;99.90
10419;DHT22;5256;48.728;9.140;2023-03-26T05:32:12;5.50;99.90
10419;DHT22;5256;48.728;9.140;2023-03-26T05:34:39;5.60;99.90
10419;DHT22;5256;48.728;9.140;2023-03-26T05:37:04;5.60;99.90
10419;DHT22;5256;48.728;9.140;2023-03-26T05:39:31;5.60;99.90
10419;DHT22;5256;48.728;9.140;2023-03-26T05:41:57;5.70;99.90
10419;DHT22;5256;48.728;9.140;2023-03-26T05:44:23;5.90;99.90
10419;DHT22;5256;48.728;9.140;2023-03-26T05:46:48;5.90;99.90
10419;DHT22;5256;48.728;9.140;2023-03-26T05:49:14;5.90;99.90
10419;DHT22;5256;48.728;9.140;2023-03-26T05:51:39;5.80;99.90
10419;DHT22;5256;48.728;9.140;2023-03-26T05:54:05;5.80;99.90
10419;DHT22;5256;48.728;9.140;2023-03-26T05:56:30;5.80;99.90
10419;DHT22;5256;48.728;9.140;2023-03-26T05:58:56;5.90;99.90
10419;DHT22;5256;48.728;9.140;2023-03-26T06:01:21;5.90;99.90
10419;DHT22;5256;48.728;9.140;2023-03-26T06:03:50;5.90;99.90
10419;DHT22;5256;48.728;9.140;2023-03-26T06:06:18;5.90;99.90
10419;DHT22;5256;48.728;9.140;2023-03-26T06:08:49;5.90;99.90
10419;DHT22;5256;48.728;9.140;2023-03-26T06:11:19;5.90;99.90
10419;DHT22;5256;48.728;9.140;2023-03-26T06:13:46;5.90;99.90
10419;DHT22;5256;48.728;9.140;2023-03-26T06:16:12;5.90;99.90
10419;DHT22;5256;48.728;9.140;2023-03-26T06:18:39;5.90;99.90
10419;DHT22;5256;48.728;9.140;2023-03-26T06:21:05;5.90;99.90
10419;DHT22;5256;48.728;9.140;2023-03-26T06:23:31;5.90;99.90
10419;DHT22;5256;48.728;9.140;2023-03-26T06:25:57;6.00;99.90
10419;DHT22;5256;48.728;9.140;2023-03-26T06:28:23;6.00;99.90
10419;DHT22;5256;48.728;9.140;2023-03-26T06:30:49;6.10;99.90
10419;DHT22;5256;48.728;9.140;2023-03-26T06:33:15;6.10;99.90
10419;DHT22;5256;48.728;9.140;2023-03-26T06:35:41;6.20;99.90
10419;DHT22;5256;48.728;9.140;2023-03-26T06:38:09;6.20;99.90
10419;DHT22;5256;48.728;9.140;2023-03-26T06:40:35;6.30;99.90
10419;DHT22;5256;48.728;9.140;2023-03-26T06:43:00;6.40;99.90
10419;DHT22;5256;48.728;9.140;2023-03-26T06:45:27;6.40;99.90
10419;DHT22;5256;48.728;9.140;2023-03-26T06:47:53;6.50;99.90
10419;DHT22;5256;48.728;9.140;2023-03-26T06:50:19;6.50;99.90
10419;DHT22;5256;48.728;9.140;2023-03-26T06:52:44;6.50;99.90
10419;DHT22;5256;48.728;9.140;2023-03-26T06:55:10;6.60;99.90
10419;DHT22;5256;48.728;9.140;2023-03-26T06:57:36;6.60;99.90
10419;DHT22;5256;48.728;9.140;2023-03-26T07:00:03;6.60;99.90
10419;DHT22;5256;48.728;9.140;2023-03-26T07:02:29;6.60;99.90
10419;DHT22;5256;48.728;9.140;2023-03-26T07:04:55;6.60;99.90
10419;DHT22;5256;48.728;9.140;2023-03-26T07:07:20;6.50;99.90
10419;DHT22;5256;48.728;9.140;2023-03-26T07:09:48;6.50;99.90
10419;DHT22;5256;48.728;9.140;2023-03-26T07:12:14;6.50;99.90
10419;DHT22;5256;48.728;9.140;2023-03-26T07:14:39;6.50;99.90
10419;DHT22;5256;48.728;9.140;2023-03-26T07:17:05;6.60;99.90
10419;DHT22;5256;48.728;9.140;2023-03-26T07:19:31;6.60;99.90
10419;DHT22;5256;48.728;9.140;2023-03-26T07:21:57;6.60;99.90
10419;DHT22;5256;48.728;9.140;2023-03-26T07:24:23;6.70;99.90
10419;DHT22;5256;48.728;9.140;2023-03-26T07:27:12;6.70;99.90
10419;DHT22;5256;48.728;9.140;2023-03-26T07:29:52;6.60;99.90
10419;DHT22;5256;48.728;9.140;2023-03-26T07:32:40;6.50;99.90
10419;DHT22;5256;48.728;9.140;2023-03-26T07:46:11;6.30;99.90
10419;DHT22;5256;48.728;9.140;2023-03-26T07:48:43;6.30;99.90
10419;DHT22;5256;48.728;9.140;2023-03-26T07:51:09;6.20;99.90
10419;DHT22;5256;48.728;9.140;2023-03-26T07:53:36;6.30;99.90
10419;DHT22;5256;48.728;9.140;2023-03-26T07:56:12;6.20;99.90
10419;DHT22;5256;48.728;9.140;2023-03-26T08:02:25;6.20;99.90
10419;DHT22;5256;48.728;9.140;2023-03-26T08:15:40;6.20;99.90
10419;DHT22;5256;48.728;9.140;2023-03-26T08:20:46;6.10;99.90
10419;DHT22;5256;48.728;9.140;2023-03-26T08:23:26;6.10;99.90
10419;DHT22;5256;48.728;9.140;2023-03-26T08:28:50;6.20;99.90
10419;DHT22;5256;48.728;9.140;2023-03-26T08:31:33;6.20;99.90
10419;DHT22;5256;48.728;9.140;2023-03-26T08:33:59;6.20;99.90
10419;DHT22;5256;48.728;9.140;2023-03-26T08:36:25;6.20;99.90
10419;DHT22;5256;48.728;9.140;2023-03-26T08:38:52;6.30;99.90
10419;DHT22;5256;48.728;9.140;2023-03-26T08:41:51;6.30;99.90
10419;DHT22;5256;48.728;9.140;2023-03-26T08:50:49;6.60;99.90
10419;DHT22;5256;48.728;9.140;2023-03-26T08:56:28;6.80;99.90
10419;DHT22;5256;48.728;9.140;2023-03-26T09:05:35;7.40;99.90
10419;DHT22;5256;48.728;9.140;2023-03-26T09:10:59;7.80;99.90
10419;DHT22;5256;48.728;9.140;2023-03-26T09:13:55;8.20;99.90
10419;DHT22;5256;48.728;9.140;2023-03-26T09:19:52;8.60;99.90
10419;DHT22;5256;48.728;9.140;2023-03-26T09:29:01;9.60;99.90
10419;DHT22;5256;48.728;9.140;2023-03-26T09:32:01;9.60;99.90
10419;DHT22;5256;48.728;9.140;2023-03-26T09:37:45;10.50;99.90
10419;DHT22;5256;48.728;9.140;2023-03-26T09:40:23;10.40;99.90
10419;DHT22;5256;48.728;9.140;2023-03-26T09:51:20;10.70;99.90
10419;DHT22;5256;48.728;9.140;2023-03-26T10:00:06;10.80;99.90
10419;DHT22;5256;48.728;9.140;2023-03-26T10:05:53;11.00;99.90
10419;DHT22;5256;48.728;9.140;2023-03-26T10:14:11;11.10;99.90
10419;DHT22;5256;48.728;9.140;2023-03-26T10:16:58;10.90;99.90
10419;DHT22;5256;48.728;9.140;2023-03-26T10:22:40;11.40;99.90
10419;DHT22;5256;48.728;9.140;2023-03-26T10:31:12;11.90;99.90
10419;DHT22;5256;48.728;9.140;2023-03-26T10:33:58;11.80;99.90
10419;DHT22;5256;48.728;9.140;2023-03-26T10:36:32;11.50;99.90
10419;DHT22;5256;48.728;9.140;2023-03-26T10:44:42;10.60;99.90
10419;DHT22;5256;48.728;9.140;2023-03-26T10:47:33;10.70;99.90
10419;DHT22;5256;48.728;9.140;2023-03-26T10:50:25;10.90;99.90
10419;DHT22;5256;48.728;9.140;2023-03-26T10:53:02;11.30;99.90
10419;DHT22;5256;48.728;9.140;2023-03-26T10:55:43;11.40;99.90
10419;DHT22;5256;48.728;9.140;2023-03-26T10:58:24;11.40;99.90
10419;DHT22;5256;48.728;9.140;2023-03-26T11:03:45;11.00;99.90
10419;DHT22;5256;48.728;9.140;2023-03-26T11:09:31;10.70;99.90
10419;DHT22;5256;48.728;9.140;2023-03-26T11:20:45;11.90;99.90
10419;DHT22;5256;48.728;9.140;2023-03-26T11:23:29;11.90;99.90
10419;DHT22;5256;48.728;9.140;2023-03-26T11:32:06;11.60;99.90
10419;DHT22;5256;48.728;9.140;2023-03-26T11:37:41;11.70;99.90
10419;DHT22;5256;48.728;9.140;2023-03-26T11:40:13;11.80;99.90
10419;DHT22;5256;48.728;9.140;2023-03-26T11:42:41;11.60;99.90
10419;DHT22;5256;48.728;9.140;2023-03-26T11:45:15;11.60;99.90
10419;DHT22;5256;48.728;9.140;2023-03-26T11:47:49;11.70;99.90
10419;DHT22;5256;48.728;9.140;2023-03-26T11:50:20;11.90;99.90
10419;DHT22;5256;48.728;9.140;2023-03-26T11:52:48;12.20;99.90
10419;DHT22;5256;48.728;9.140;2023-03-26T11:55:14;12.40;99.90
10419;DHT22;5256;48.728;9.140;2023-03-26T11:57:44;12.20;99.90
10419;DHT22;5256;48.728;9.140;2023-03-26T12:00:17;12.20;99.90
10419;DHT22;5256;48.728;9.140;2023-03-26T12:02:46;12.40;99.90
10419;DHT22;5256;48.728;9.140;2023-03-26T12:05:17;12.40;99.90
10419;DHT22;5256;48.728;9.140;2023-03-26T12:07:48;12.40;99.90
10419;DHT22;5256;48.728;9.140;2023-03-26T12:10:22;12.40;99.90
10419;DHT22;5256;48.728;9.140;2023-03-26T12:12:52;12.40;99.90
10419;DHT22;5256;48.728;9.140;2023-03-26T12:15:19;12.40;99.90
10419;DHT22;5256;48.728;9.140;2023-03-26T12:17:51;12.70;99.90
10419;DHT22;5256;48.728;9.140;2023-03-26T12:22:53;12.70;99.90
10419;DHT22;5256;48.728;9.140;2023-03-26T12:25:28;12.60;99.90
10419;DHT22;5256;48.728;9.140;2023-03-26T12:35:46;12.50;99.60
10419;DHT22;5256;48.728;9.140;2023-03-26T12:38:24;12.70;99.90
10419;DHT22;5256;48.728;9.140;2023-03-26T12:41:09;12.90;99.90
10419;DHT22;5256;48.728;9.140;2023-03-26T12:43:43;13.10;99.90
10419;DHT22;5256;48.728;9.140;2023-03-26T12:48:58;13.20;99.90
10419;DHT22;5256;48.728;9.140;2023-03-26T12:51:51;13.10;99.90
10419;DHT22;5256;48.728;9.140;2023-03-26T12:57:20;12.90;99.30
10419;DHT22;5256;48.728;9.140;2023-03-26T13:02:49;12.70;99.30
10419;DHT22;5256;48.728;9.140;2023-03-26T13:08:52;12.80;99.20
10419;DHT22;5256;48.728;9.140;2023-03-26T13:18:54;12.70;99.60
10419;DHT22;5256;48.728;9.140;2023-03-26T13:21:36;13.00;98.20
10419;DHT22;5256;48.728;9.140;2023-03-26T13:24:24;13.20;98.50
10419;DHT22;5256;48.728;9.140;2023-03-26T13:32:17;13.80;96.60
10419;DHT22;5256;48.728;9.140;2023-03-26T13:35:04;13.80;95.90
10419;DHT22;5256;48.728;9.140;2023-03-26T13:48:09;13.20;95.20
10419;DHT22;5256;48.728;9.140;2023-03-26T13:50:40;13.10;95.40
10419;DHT22;5256;48.728;9.140;2023-03-26T13:53:17;12.90;95.90
10419;DHT22;5256;48.728;9.140;2023-03-26T13:55:49;12.80;95.90
10419;DHT22;5256;48.728;9.140;2023-03-26T13:59:06;12.80;95.90
10419;DHT22;5256;48.728;9.140;2023-03-26T14:01:43;12.80;96.30
10419;DHT22;5256;48.728;9.140;2023-03-26T14:04:29;12.80;96.40
10419;DHT22;5256;48.728;9.140;2023-03-26T14:07:18;12.90;96.30
10419;DHT22;5256;48.728;9.140;2023-03-26T14:10:06;12.80;96.40
10419;DHT22;5256;48.728;9.140;2023-03-26T14:15:36;12.50;97.30
10419;DHT22;5256;48.728;9.140;2023-03-26T14:18:19;12.20;97.50
10419;DHT22;5256;48.728;9.140;2023-03-26T14:24:07;11.70;99.00
10419;DHT22;5256;48.728;9.140;2023-03-26T14:26:39;10.60;99.90
10419;DHT22;5256;48.728;9.140;2023-03-26T14:32:02;8.70;99.90
10419;DHT22;5256;48.728;9.140;2023-03-26T14:40:38;7.50;99.90
10419;DHT22;5256;48.728;9.140;2023-03-26T14:43:15;7.40;99.90
10419;DHT22;5256;48.728;9.140;2023-03-26T14:54:09;7.40;99.90
10419;DHT22;5256;48.728;9.140;2023-03-26T15:05:07;7.80;99.90
10419;DHT22;5256;48.728;9.140;2023-03-26T15:22:26;8.00;99.90
10419;DHT22;5256;48.728;9.140;2023-03-26T15:25:02;8.00;99.90
10419;DHT22;5256;48.728;9.140;2023-03-26T15:28:06;7.80;99.90
10419;DHT22;5256;48.728;9.140;2023-03-26T15:36:47;7.00;99.90
10419;DHT22;5256;48.728;9.140;2023-03-26T15:44:53;6.50;99.90
10419;DHT22;5256;48.728;9.140;2023-03-26T15:50:31;6.40;99.90
10419;DHT22;5256;48.728;9.140;2023-03-26T16:07:42;6.10;99.90
10419;DHT22;5256;48.728;9.140;2023-03-26T16:10:38;6.20;99.90
10419;DHT22;5256;48.728;9.140;2023-03-26T16:15:49;6.20;99.90
10419;DHT22;5256;48.728;9.140;2023-03-26T16:18:27;6.20;99.90
10419;DHT22;5256;48.728;9.140;2023-03-26T16:23:54;6.20;99.90
10419;DHT22;5256;48.728;9.140;2023-03-26T16:29:15;6.30;99.90
10419;DHT22;5256;48.728;9.140;2023-03-26T16:32:07;6.30;99.90
10419;DHT22;5256;48.728;9.140;2023-03-26T16:37:35;6.20;99.90
10419;DHT22;5256;48.728;9.140;2023-03-26T16:46:15;6.20;99.90
10419;DHT22;5256;48.728;9.140;2023-03-26T16:51:41;6.10;99.90
10419;DHT22;5256;48.728;9.140;2023-03-26T16:54:37;6.10;99.90
10419;DHT22;5256;48.728;9.140;2023-03-26T16:57:26;6.00;99.90
10419;DHT22;5256;48.728;9.140;2023-03-26T17:00:03;6.00;99.90
10419;DHT22;5256;48.728;9.140;2023-03-26T17:02:32;6.00;99.90
10419;DHT22;5256;48.728;9.140;2023-03-26T17:08:11;6.00;99.90
10419;DHT22;5256;48.728;9.140;2023-03-26T17:13:41;6.10;99.90
10419;DHT22;5256;48.728;9.140;2023-03-26T17:16:27;6.10;99.90
10419;DHT22;5256;48.728;9.140;2023-03-26T17:19:09;6.10;99.90
10419;DHT22;5256;48.728;9.140;2023-03-26T17:21:45;6.00;99.90
10419;DHT22;5256;48.728;9.140;2023-03-26T17:24:53;6.00;99.90
10419;DHT22;5256;48.728;9.140;2023-03-26T17:27:31;6.00;99.90
10419;DHT22;5256;48.728;9.140;2023-03-26T17:35:43;6.10;99.90
10419;DHT22;5256;48.728;9.140;2023-03-26T17:40:59;6.10;99.90
10419;DHT22;5256;48.728;9.140;2023-03-26T17:43:35;6.10;99.90
10419;DHT22;5256;48.728;9.140;2023-03-26T17:46:04;6.00;99.90
10419;DHT22;5256;48.728;9.140;2023-03-26T17:48:37;6.00;99.90
10419;DHT22;5256;48.728;9.140;2023-03-26T17:54:17;5.90;99.90
10419;DHT22;5256;48.728;9.140;2023-03-26T17:56:45;5.90;99.90
10419;DHT22;5256;48.728;9.140;2023-03-26T17:59:21;5.80;99.90
10419;DHT22;5256;48.728;9.140;2023-03-26T18:01:54;5.80;99.90
10419;DHT22;5256;48.728;9.140;2023-03-26T18:04:36;5.80;99.90
10419;DHT22;5256;48.728;9.140;2023-03-26T18:07:21;5.70;99.90
10419;DHT22;5256;48.728;9.140;2023-03-26T18:12:50;5.60;99.90
10419;DHT22;5256;48.728;9.140;2023-03-26T18:15:29;5.60;99.90
10419;DHT22;5256;48.728;9.140;2023-03-26T18:18:10;5.50;99.90
10419;DHT22;5256;48.728;9.140;2023-03-26T18:20:37;5.50;99.90
10419;DHT22;5256;48.728;9.140;2023-03-26T18:23:19;5.50;99.90
10419;DHT22;5256;48.728;9.140;2023-03-26T18:25:54;5.50;99.90
10419;DHT22;5256;48.728;9.140;2023-03-26T18:28:28;5.50;99.90
10419;DHT22;5256;48.728;9.140;2023-03-26T18:30:54;5.50;99.90
10419;DHT22;5256;48.728;9.140;2023-03-26T18:33:20;5.50;99.90
10419;DHT22;5256;48.728;9.140;2023-03-26T18:35:50;5.50;99.90
10419;DHT22;5256;48.728;9.140;2023-03-26T18:38:22;5.50;99.90
10419;DHT22;5256;48.728;9.140;2023-03-26T18:40:50;5.50;99.90
10419;DHT22;5256;48.728;9.140;2023-03-26T18:43:20;5.50;99.90
10419;DHT22;5256;48.728;9.140;2023-03-26T18:45:50;5.50;99.90
10419;DHT22;5256;48.728;9.140;2023-03-26T18:48:19;5.50;99.90
10419;DHT22;5256;48.728;9.140;2023-03-26T18:51:05;5.50;99.90
10419;DHT22;5256;48.728;9.140;2023-03-26T18:53:40;5.50;99.90
10419;DHT22;5256;48.728;9.140;2023-03-26T18:56:19;5.60;99.90
10419;DHT22;5256;48.728;9.140;2023-03-26T18:58:50;5.60;99.90
10419;DHT22;5256;48.728;9.140;2023-03-26T19:01:17;5.60;99.90
10419;DHT22;5256;48.728;9.140;2023-03-26T19:03:43;5.50;99.90
10419;DHT22;5256;48.728;9.140;2023-03-26T19:06:11;5.50;99.90
10419;DHT22;5256;48.728;9.140;2023-03-26T19:08:40;5.50;99.90
10419;DHT22;5256;48.728;9.140;2023-03-26T19:11:08;5.60;99.90
10419;DHT22;5256;48.728;9.140;2023-03-26T19:13:36;5.50;99.90
10419;DHT22;5256;48.728;9.140;2023-03-26T19:16:18;5.50;99.90
10419;DHT22;5256;48.728;9.140;2023-03-26T19:18:46;5.50;99.90
10419;DHT22;5256;48.728;9.140;2023-03-26T19:21:13;5.50;99.90
10419;DHT22;5256;48.728;9.140;2023-03-26T19:23:40;5.60;99.90
10419;DHT22;5256;48.728;9.140;2023-03-26T19:26:08;5.60;99.90
10419;DHT22;5256;48.728;9.140;2023-03-26T19:28:42;5.60;99.90
10419;DHT22;5256;48.728;9.140;2023-03-26T19:33:42;5.60;99.90
10419;DHT22;5256;48.728;9.140;2023-03-26T19:36:23;5.60;99.90
10419;DHT22;5256;48.728;9.140;2023-03-26T19:41:36;5.60;99.90
10419;DHT22;5256;48.728;9.140;2023-03-26T19:44:20;5.60;99.90
10419;DHT22;5256;48.728;9.140;2023-03-26T19:46:48;5.50;99.90
10419;DHT22;5256;48.728;9.140;2023-03-26T19:49:30;5.40;99.90
10419;DHT22;5256;48.728;9.140;2023-03-26T19:52:14;5.40;99.90
10419;DHT22;5256;48.728;9.140;2023-03-26T19:57:51;5.20;99.90
10419;DHT22;5256;48.728;9.140;2023-03-26T20:00:17;5.20;99.90
10419;DHT22;5256;48.728;9.140;2023-03-26T20:02:43;5.10;99.90
10419;DHT22;5256;48.728;9.140;2023-03-26T20:05:32;5.10;99.90
10419;DHT22;5256;48.728;9.140;2023-03-26T20:08:00;5.10;99.90
10419;DHT22;5256;48.728;9.140;2023-03-26T20:10:29;5.00;99.90
10419;DHT22;5256;48.728;9.140;2023-03-26T20:12:54;5.00;99.90
10419;DHT22;5256;48.728;9.140;2023-03-26T20:15:23;5.00;99.90
10419;DHT22;5256;48.728;9.140;2023-03-26T20:17:50;5.00;99.90
10419;DHT22;5256;48.728;9.140;2023-03-26T20:20:20;5.00;99.90
10419;DHT22;5256;48.728;9.140;2023-03-26T20:22:46;4.90;99.90
10419;DHT22;5256;48.728;9.140;2023-03-26T20:25:20;4.90;99.90
10419;DHT22;5256;48.728;9.140;2023-03-26T20:27:47;4.90;99.90
10419;DHT22;5256;48.728;9.140;2023-03-26T20:30:14;4.80;99.90
10419;DHT22;5256;48.728;9.140;2023-03-26T20:32:40;4.80;99.90
10419;DHT22;5256;48.728;9.140;2023-03-26T20:35:23;4.80;99.90
10419;DHT22;5256;48.728;9.140;2023-03-26T20:37:50;4.80;99.90
10419;DHT22;5256;48.728;9.140;2023-03-26T20:40:16;4.70;99.90
10419;DHT22;5256;48.728;9.140;2023-03-26T20:42:43;4.70;99.90
10419;DHT22;5256;48.728;9.140;2023-03-26T20:45:21;4.70;99.90
10419;DHT22;5256;48.728;9.140;2023-03-26T20:47:49;4.60;99.90
10419;DHT22;5256;48.728;9.140;2023-03-26T20:50:16;4.60;99.90
10419;DHT22;5256;48.728;9.140;2023-03-26T20:52:42;4.60;99.90
10419;DHT22;5256;48.728;9.140;2023-03-26T20:55:19;4.60;99.90
10419;DHT22;5256;48.728;9.140;2023-03-26T20:57:48;4.50;99.90
10419;DHT22;5256;48.728;9.140;2023-03-26T21:00:16;4.50;99.90
10419;DHT22;5256;48.728;9.140;2023-03-26T21:02:55;4.50;99.90
10419;DHT22;5256;48.728;9.140;2023-03-26T21:05:25;4.50;99.90
10419;DHT22;5256;48.728;9.140;2023-03-26T21:07:55;4.60;99.90
10419;DHT22;5256;48.728;9.140;2023-03-26T21:10:22;4.60;99.90
10419;DHT22;5256;48.728;9.140;2023-03-26T21:15:27;4.60;99.90
10419;DHT22;5256;48.728;9.140;2023-03-26T21:17:54;4.60;99.90
10419;DHT22;5256;48.728;9.140;2023-03-26T21:20:20;4.60;99.90
10419;DHT22;5256;48.728;9.140;2023-03-26T21:23:00;4.60;99.90
10419;DHT22;5256;48.728;9.140;2023-03-26T21:28:24;4.70;99.90
10419;DHT22;5256;48.728;9.140;2023-03-26T21:30:51;4.80;99.90
10419;DHT22;5256;48.728;9.140;2023-03-26T21:33:16;4.80;99.90
10419;DHT22;5256;48.728;9.140;2023-03-26T21:35:43;4.80;99.90
10419;DHT22;5256;48.728;9.140;2023-03-26T21:38:09;4.80;99.90
10419;DHT22;5256;48.728;9.140;2023-03-26T21:40:36;4.80;99.90
10419;DHT22;5256;48.728;9.140;2023-03-26T21:43:02;4.80;99.90
10419;DHT22;5256;48.728;9.140;2023-03-26T21:45:28;4.70;99.90
10419;DHT22;5256;48.728;9.140;2023-03-26T21:47:54;4.70;99.90